Time;durP1;ratioP1;P1;durP2;ratioP2;P2;SDS_P1;SDS_P2;PMS_P1;PMS_P2;Temp;Humidity;BMP_temperature;BMP_pressure;BME280_temperature;BME280_humidity;BME280_pressure;Samples;Min_cycle;Max_cycle;Signal;HPM_P1;HPM_P2
2022/01/24 00:01:17;;;;;;;0.30;0.30;;;5.20;99.90;;;;;;5099113;27;20039;-86
2022/01/24 00:03:43;;;;;;;0.65;0.65;;;5.20;99.90;;;;;;5098861;27;20041;-84
2022/01/24 00:06:12;;;;;;;0.40;0.40;;;5.20;99.90;;;;;;5098071;27;20684;-84
2022/01/24 00:08:38;;;;;;;0.25;0.25;;;5.20;99.90;;;;;;5115114;27;20509;-85
2022/01/24 00:11:09;;;;;;;0.40;0.40;;;5.20;99.90;;;;;;5098282;27;20062;-85
2022/01/24 00:26:58;;;;;;;0.50;0.50;;;5.10;99.90;;;;;;5118796;27;20047;-85
2022/01/24 00:29:25;;;;;;;0.40;0.40;;;5.10;99.90;;;;;;5098635;27;20134;-85
2022/01/24 00:31:55;;;;;;;0.30;0.30;;;5.10;99.90;;;;;;5089037;28;20044;-84
2022/01/24 00:34:25;;;;;;;0.50;0.50;;;5.10;99.90;;;;;;5090534;27;20023;-84
2022/01/24 00:36:53;;;;;;;0.40;0.40;;;5.10;99.90;;;;;;5097267;27;20042;-85
2022/01/24 00:39:24;;;;;;;0.80;0.75;;;5.10;99.90;;;;;;5097750;27;20062;-84
2022/01/24 00:46:55;;;;;;;0.50;0.50;;;5.10;99.90;;;;;;5093840;28;20523;-84
2022/01/24 00:49:50;;;;;;;0.30;0.30;;;5.20;99.90;;;;;;5091699;27;20031;-85
2022/01/24 00:55:13;;;;;;;0.30;0.30;;;5.10;99.90;;;;;;5114020;27;20790;-84
2022/01/24 00:57:43;;;;;;;0.30;0.30;;;5.10;99.90;;;;;;5080485;27;20035;-85
2022/01/24 01:00:09;;;;;;;0.40;0.40;;;5.00;99.90;;;;;;5097954;27;20096;-84
2022/01/24 01:02:38;;;;;;;0.35;0.35;;;5.00;99.90;;;;;;5095893;27;20399;-85
2022/01/24 01:05:21;;;;;;;0.85;0.85;;;5.10;99.90;;;;;;5095256;27;20039;-84
2022/01/24 01:08:12;;;;;;;0.38;0.38;;;5.00;99.90;;;;;;5078248;28;20558;-84
2022/01/24 01:18:57;;;;;;;0.20;0.20;;;4.90;99.90;;;;;;5105647;28;20071;-84
2022/01/24 01:21:23;;;;;;;0.40;0.40;;;4.90;99.90;;;;;;5111703;28;20120;-84
2022/01/24 01:23:54;;;;;;;1.15;0.95;;;5.00;99.90;;;;;;5085337;28;20505;-84
2022/01/24 01:26:34;;;;;;;0.77;0.77;;;5.40;99.90;;;;;;5087012;28;20042;-85
2022/01/24 01:29:08;;;;;;;2.10;1.23;;;4.90;99.90;;;;;;5078220;28;20755;-84
2022/01/24 01:34:11;;;;;;;0.73;0.70;;;4.90;99.90;;;;;;5113750;28;20135;-85
2022/01/24 01:56:41;;;;;;;0.63;0.63;;;5.00;99.90;;;;;;5117289;27;20047;-84
2022/01/24 01:59:07;;;;;;;0.82;0.82;;;4.90;99.90;;;;;;5100562;27;20039;-84
2022/01/24 02:01:33;;;;;;;0.38;0.38;;;4.90;99.90;;;;;;5117661;27;20129;-85
2022/01/24 02:04:02;;;;;;;0.85;0.85;;;4.90;99.90;;;;;;5100889;27;20071;-85
2022/01/24 02:06:30;;;;;;;0.30;0.30;;;4.90;99.90;;;;;;5100259;27;20035;-84
2022/01/24 02:09:01;;;;;;;0.38;0.38;;;4.90;99.90;;;;;;5100774;27;20042;-84
2022/01/24 02:11:28;;;;;;;0.68;0.60;;;4.90;99.90;;;;;;5117760;27;20039;-84
2022/01/24 02:13:54;;;;;;;0.77;0.77;;;4.90;99.90;;;;;;5100565;27;20043;-84
2022/01/24 02:17:06;;;;;;;0.47;0.47;;;4.90;99.90;;;;;;5100521;27;20070;-84
2022/01/24 02:24:37;;;;;;;1.38;1.27;;;4.90;99.90;;;;;;5097483;28;20640;-84
2022/01/24 02:27:03;;;;;;;0.63;0.60;;;4.80;99.90;;;;;;5064789;28;20074;-84
2022/01/24 02:29:48;;;;;;;0.80;0.80;;;4.80;99.90;;;;;;5079865;28;20083;-84
2022/01/24 02:32:14;;;;;;;0.30;0.30;;;4.80;99.90;;;;;;5079770;28;20048;-84
2022/01/24 02:34:43;;;;;;;0.80;0.80;;;4.90;99.90;;;;;;5093667;27;20121;-84
2022/01/24 02:37:11;;;;;;;0.30;0.30;;;4.80;99.90;;;;;;5099197;27;20134;-84
2022/01/24 02:50:51;;;;;;;0.30;0.30;;;4.90;99.90;;;;;;5116688;27;20915;-84
2022/01/24 02:53:12;;;;;;;0.68;0.47;;;4.80;99.90;;;;;;5115938;27;20042;-84
2022/01/24 02:55:38;;;;;;;0.55;0.52;;;4.90;99.90;;;;;;5098696;27;20035;-84
2022/01/24 02:58:04;;;;;;;2.05;1.30;;;4.90;99.90;;;;;;5100852;27;20077;-84
2022/01/24 03:00:31;;;;;;;0.38;0.32;;;4.80;99.90;;;;;;5101330;27;20528;-84
2022/01/24 03:02:57;;;;;;;1.70;0.93;;;4.90;99.90;;;;;;5101066;27;20501;-84
2022/01/24 03:05:22;;;;;;;0.50;0.40;;;4.90;99.90;;;;;;5101143;27;20071;-84
2022/01/24 03:07:48;;;;;;;0.63;0.57;;;4.90;99.90;;;;;;5100674;27;20070;-84
2022/01/24 03:10:24;;;;;;;0.30;0.30;;;4.80;99.90;;;;;;5100433;27;20399;-84
2022/01/24 03:15:39;;;;;;;0.90;0.77;;;4.80;99.90;;;;;;5117694;27;20044;-84
2022/01/24 03:18:06;;;;;;;0.95;0.88;;;4.90;99.90;;;;;;5100388;27;20067;-84
2022/01/24 03:20:32;;;;;;;0.30;0.30;;;4.90;99.90;;;;;;5100506;27;20105;-84
2022/01/24 03:22:57;;;;;;;0.55;0.55;;;4.80;99.90;;;;;;5101026;27;20127;-84
2022/01/24 03:25:23;;;;;;;0.85;0.68;;;4.80;99.90;;;;;;5100702;27;20039;-84
2022/01/24 03:27:49;;;;;;;0.45;0.45;;;4.90;99.90;;;;;;5100161;27;20058;-84
2022/01/24 03:30:14;;;;;;;0.30;0.30;;;4.80;99.90;;;;;;5100639;27;20031;-84
2022/01/24 03:32:40;;;;;;;0.35;0.35;;;4.90;99.90;;;;;;5100749;27;20050;-83
2022/01/24 03:35:07;;;;;;;0.63;0.63;;;4.80;99.90;;;;;;5100377;27;20058;-85
2022/01/24 03:37:49;;;;;;;0.90;0.85;;;4.90;99.90;;;;;;5100093;27;20032;-84
2022/01/24 03:40:15;;;;;;;1.42;1.05;;;4.90;99.90;;;;;;5100305;27;20035;-84
2022/01/24 03:42:40;;;;;;;0.52;0.52;;;4.90;99.90;;;;;;5100163;27;20031;-84
2022/01/24 03:45:09;;;;;;;3.08;1.67;;;4.90;99.90;;;;;;5100332;27;20048;-84
2022/01/24 03:50:03;;;;;;;0.40;0.40;;;4.90;99.90;;;;;;5117461;27;20039;-84
2022/01/24 03:52:30;;;;;;;0.55;0.55;;;4.90;99.90;;;;;;5117055;27;20087;-84
2022/01/24 03:54:56;;;;;;;0.30;0.30;;;4.90;99.90;;;;;;5099915;27;20114;-84
2022/01/24 03:57:22;;;;;;;1.02;1.02;;;4.90;99.90;;;;;;5099782;27;20035;-84
2022/01/24 03:59:48;;;;;;;0.47;0.47;;;5.00;99.90;;;;;;5099937;27;20039;-83
2022/01/24 04:02:14;;;;;;;0.30;0.30;;;5.00;99.90;;;;;;5116186;27;20488;-84
2022/01/24 04:04:41;;;;;;;0.32;0.32;;;5.00;99.90;;;;;;5117106;27;20045;-84
2022/01/24 04:07:06;;;;;;;0.32;0.32;;;4.90;99.90;;;;;;5099294;27;20080;-84
2022/01/24 04:09:34;;;;;;;0.30;0.30;;;5.00;99.90;;;;;;5116610;27;20397;-84
2022/01/24 04:12:00;;;;;;;0.32;0.32;;;5.00;99.90;;;;;;5099747;27;20130;-84
2022/01/24 04:22:12;;;;;;;0.30;0.30;;;4.90;99.90;;;;;;5116893;27;20125;-84
2022/01/24 04:24:38;;;;;;;0.40;0.40;;;4.90;99.90;;;;;;5099722;27;20472;-84
2022/01/24 04:27:04;;;;;;;0.40;0.40;;;4.90;99.90;;;;;;5099256;27;20046;-84
2022/01/24 04:29:30;;;;;;;0.30;0.30;;;4.90;99.90;;;;;;5116222;27;20407;-84
2022/01/24 04:31:56;;;;;;;0.40;0.40;;;4.90;99.90;;;;;;5099613;27;20078;-84
2022/01/24 04:34:22;;;;;;;0.60;0.60;;;4.90;99.90;;;;;;5099446;27;20035;-84
2022/01/24 04:36:47;;;;;;;0.30;0.30;;;4.90;99.90;;;;;;5098801;27;20101;-84
2022/01/24 04:39:13;;;;;;;0.30;0.30;;;5.00;99.90;;;;;;5099075;27;20476;-84
2022/01/24 04:41:43;;;;;;;0.40;0.40;;;4.90;99.90;;;;;;5099117;27;20046;-84
2022/01/24 04:54:42;;;;;;;0.38;0.38;;;4.80;99.90;;;;;;5116187;27;20134;-84
2022/01/24 04:57:20;;;;;;;0.75;0.75;;;4.80;99.90;;;;;;5098534;27;20471;-84
2022/01/24 04:59:47;;;;;;;0.30;0.30;;;4.80;99.90;;;;;;5099023;27;20031;-84
2022/01/24 05:02:14;;;;;;;0.40;0.40;;;4.90;99.90;;;;;;5092747;28;20036;-84
2022/01/24 05:04:40;;;;;;;0.30;0.30;;;4.80;99.90;;;;;;5094255;28;20040;-84
2022/01/24 05:07:06;;;;;;;0.30;0.30;;;4.80;99.90;;;;;;5077536;28;20466;-86
2022/01/24 05:09:41;;;;;;;0.30;0.30;;;4.80;99.90;;;;;;5105840;27;20035;-84
2022/01/24 05:25:48;;;;;;;0.40;0.40;;;4.80;99.90;;;;;;5094417;28;20086;-84
2022/01/24 05:28:13;;;;;;;0.35;0.35;;;4.70;99.90;;;;;;5077547;28;20093;-84
2022/01/24 05:30:39;;;;;;;0.30;0.30;;;4.70;99.90;;;;;;5094611;28;20091;-84
2022/01/24 05:33:05;;;;;;;0.77;0.77;;;4.70;99.90;;;;;;5093688;27;20061;-85
2022/01/24 05:35:30;;;;;;;0.40;0.40;;;4.70;99.90;;;;;;5102397;28;20446;-84
2022/01/24 05:37:56;;;;;;;0.30;0.30;;;4.70;99.90;;;;;;5097818;28;20043;-84
2022/01/24 05:40:21;;;;;;;0.50;0.50;;;4.70;99.90;;;;;;5115014;28;20088;-84
2022/01/24 05:42:47;;;;;;;0.30;0.30;;;4.70;99.90;;;;;;5098102;28;20055;-83
2022/01/24 05:45:13;;;;;;;0.40;0.40;;;4.70;99.90;;;;;;5097901;28;20039;-84
2022/01/24 05:47:39;;;;;;;0.40;0.40;;;4.70;99.90;;;;;;5080826;28;20051;-84
2022/01/24 05:50:05;;;;;;;0.50;0.50;;;4.70;99.90;;;;;;5097568;28;20035;-85
2022/01/24 05:52:30;;;;;;;0.77;0.77;;;4.70;99.90;;;;;;5098107;28;20085;-84
2022/01/24 05:54:56;;;;;;;0.40;0.40;;;4.70;99.90;;;;;;5097645;28;20070;-84
2022/01/24 05:57:21;;;;;;;1.70;1.58;;;4.70;99.90;;;;;;5124961;27;20043;-84
2022/01/24 05:59:47;;;;;;;1.20;0.93;;;4.70;99.90;;;;;;5113917;27;20034;-84
2022/01/24 06:02:12;;;;;;;0.30;0.30;;;4.70;99.90;;;;;;5118231;27;20117;-84
2022/01/24 06:04:38;;;;;;;6.03;1.65;;;4.70;99.90;;;;;;5118338;27;20045;-84
2022/01/24 06:07:04;;;;;;;0.43;0.43;;;4.70;99.90;;;;;;5117766;27;20042;-84
2022/01/24 06:09:29;;;;;;;0.30;0.30;;;4.70;99.90;;;;;;5118124;27;20046;-84
2022/01/24 06:11:55;;;;;;;0.30;0.30;;;4.70;99.90;;;;;;5118382;27;20065;-84
2022/01/24 06:14:20;;;;;;;0.63;0.52;;;4.70;99.90;;;;;;5135299;27;20087;-84
2022/01/24 06:16:46;;;;;;;0.47;0.47;;;4.70;99.90;;;;;;5111861;28;20038;-84
2022/01/24 06:19:12;;;;;;;0.30;0.30;;;4.70;99.90;;;;;;5102588;27;20030;-84
2022/01/24 06:21:37;;;;;;;0.30;0.30;;;4.70;99.90;;;;;;5122096;27;20046;-84
2022/01/24 06:24:03;;;;;;;0.73;0.73;;;4.70;99.90;;;;;;5117848;27;20031;-85
2022/01/24 06:26:29;;;;;;;1.48;1.33;;;4.70;99.90;;;;;;5120509;27;20046;-84
2022/01/24 06:28:55;;;;;;;0.38;0.38;;;4.70;99.90;;;;;;5138711;27;20041;-84
2022/01/24 06:31:21;;;;;;;0.90;0.90;;;4.70;99.90;;;;;;5138618;27;20042;-85
2022/01/24 06:33:48;;;;;;;0.40;0.40;;;4.70;99.90;;;;;;5121481;27;20451;-84
2022/01/24 06:36:14;;;;;;;1.10;1.00;;;4.70;99.90;;;;;;5121110;27;20042;-84
2022/01/24 06:38:40;;;;;;;0.40;0.40;;;4.70;99.90;;;;;;5121030;27;20069;-85
2022/01/24 06:41:06;;;;;;;1.35;1.25;;;4.70;99.90;;;;;;5121395;27;20403;-84
2022/01/24 06:43:31;;;;;;;0.40;0.40;;;4.70;99.90;;;;;;5121246;27;20031;-84
2022/01/24 06:46:10;;;;;;;0.50;0.50;;;4.70;99.90;;;;;;5114005;27;20038;-84
2022/01/24 06:48:36;;;;;;;0.80;0.80;;;4.70;99.90;;;;;;5080625;28;20108;-84
2022/01/24 06:51:04;;;;;;;0.50;0.50;;;4.70;99.90;;;;;;5080448;28;20078;-84
2022/01/24 06:53:30;;;;;;;0.40;0.40;;;4.70;99.90;;;;;;5080231;28;20040;-84
2022/01/24 06:55:55;;;;;;;0.73;0.73;;;4.70;99.90;;;;;;5080233;28;20044;-84
2022/01/24 06:58:22;;;;;;;1.55;1.45;;;4.70;99.90;;;;;;5091587;28;20042;-84
2022/01/24 07:00:47;;;;;;;5.70;1.60;;;4.60;99.90;;;;;;5097097;28;20105;-84
2022/01/24 07:03:13;;;;;;;0.57;0.57;;;4.70;99.90;;;;;;5080285;28;20036;-84
2022/01/24 07:05:38;;;;;;;3.03;1.75;;;4.60;99.90;;;;;;5080033;28;20050;-84
2022/01/24 07:08:04;;;;;;;1.25;1.15;;;4.70;99.90;;;;;;5113828;27;20034;-84
2022/01/24 07:10:30;;;;;;;5.47;1.95;;;4.70;99.90;;;;;;5116519;27;20125;-84
2022/01/24 07:12:55;;;;;;;1.23;1.13;;;4.70;99.90;;;;;;5120812;27;20042;-84
2022/01/24 07:15:29;;;;;;;0.50;0.50;;;4.70;99.90;;;;;;5117500;27;20483;-84
2022/01/24 07:18:13;;;;;;;0.70;0.70;;;4.70;99.90;;;;;;5097295;27;20038;-84
2022/01/24 07:20:39;;;;;;;1.90;1.70;;;4.70;99.90;;;;;;5100128;27;20031;-84
2022/01/24 07:23:05;;;;;;;5.13;2.47;;;4.70;99.90;;;;;;5100135;27;20034;-83
2022/01/24 07:25:32;;;;;;;2.15;1.40;;;4.70;99.90;;;;;;5086976;27;20444;-84
2022/01/24 07:28:46;;;;;;;5.82;1.15;;;4.70;99.90;;;;;;5090271;28;20446;-84
2022/01/24 07:31:12;;;;;;;4.25;2.10;;;4.70;99.90;;;;;;5079491;28;20069;-84
2022/01/24 07:33:39;;;;;;;2.75;2.45;;;4.70;99.90;;;;;;5107478;27;20047;-85
2022/01/24 07:36:05;;;;;;;0.85;0.85;;;4.70;99.90;;;;;;5115880;27;20510;-85
2022/01/24 07:38:30;;;;;;;0.73;0.73;;;4.70;99.90;;;;;;5099477;27;20032;-84
2022/01/24 07:40:56;;;;;;;0.45;0.45;;;4.70;99.90;;;;;;5099651;27;20046;-85
2022/01/24 07:43:22;;;;;;;3.38;2.67;;;4.70;99.90;;;;;;5099728;27;20056;-84
2022/01/24 07:45:49;;;;;;;2.88;2.13;;;4.70;99.90;;;;;;5099357;27;20069;-85
2022/01/24 07:48:15;;;;;;;2.90;2.25;;;4.70;99.90;;;;;;5115821;27;20070;-87
2022/01/24 07:50:44;;;;;;;5.18;3.55;;;4.70;99.90;;;;;;5099685;27;20043;-86
2022/01/24 07:53:12;;;;;;;5.22;3.67;;;4.80;99.90;;;;;;5099495;27;20040;-84
2022/01/24 07:55:38;;;;;;;6.28;3.08;;;4.80;99.90;;;;;;5099124;27;20055;-85
2022/01/24 07:58:04;;;;;;;0.73;0.70;;;4.80;99.90;;;;;;5103294;27;20031;-84
2022/01/24 08:00:30;;;;;;;3.22;2.25;;;4.80;99.90;;;;;;5119352;27;20121;-85
2022/01/24 08:02:57;;;;;;;2.28;2.05;;;4.90;99.90;;;;;;5088752;27;20035;-85
2022/01/24 08:05:23;;;;;;;2.50;1.48;;;4.90;99.90;;;;;;5099112;27;20095;-85
2022/01/24 08:07:49;;;;;;;0.60;0.60;;;4.90;99.90;;;;;;5115552;27;20039;-85
2022/01/24 08:10:14;;;;;;;0.60;0.60;;;4.90;99.90;;;;;;5090072;27;20035;-85
2022/01/24 08:12:42;;;;;;;0.50;0.50;;;4.90;99.90;;;;;;5116217;27;20043;-84
2022/01/24 08:15:11;;;;;;;0.55;0.55;;;4.90;99.90;;;;;;5100166;27;20091;-86
2022/01/24 08:17:37;;;;;;;2.47;2.30;;;4.90;99.90;;;;;;5118947;27;20034;-86
2022/01/24 08:20:03;;;;;;;1.75;1.48;;;4.90;99.90;;;;;;5104710;27;20110;-86
2022/01/24 08:22:28;;;;;;;15.00;3.38;;;4.90;99.90;;;;;;5098720;27;20446;-84
2022/01/24 08:25:26;;;;;;;2.22;1.58;;;4.90;99.90;;;;;;5115331;27;20039;-84
2022/01/24 08:27:52;;;;;;;1.20;1.10;;;5.00;99.90;;;;;;5101360;27;20031;-82
2022/01/24 08:30:20;;;;;;;0.40;0.40;;;5.00;99.90;;;;;;5098443;27;20077;-83
2022/01/24 08:32:46;;;;;;;0.88;0.60;;;5.00;99.90;;;;;;5098659;27;20039;-85
2022/01/24 08:35:13;;;;;;;1.73;1.63;;;5.00;99.90;;;;;;5098572;27;20111;-83
2022/01/24 08:37:39;;;;;;;5.18;4.15;;;5.00;99.90;;;;;;5093910;28;20036;-82
2022/01/24 08:40:07;;;;;;;4.78;1.35;;;5.00;99.90;;;;;;5096797;27;20037;-83
2022/01/24 08:42:41;;;;;;;2.17;1.38;;;5.00;99.90;;;;;;5098461;27;20880;-83
2022/01/24 08:47:35;;;;;;;4.35;3.53;;;5.00;99.90;;;;;;5135151;27;20483;-84
2022/01/24 08:50:03;;;;;;;3.60;2.30;;;5.00;99.90;;;;;;5119113;27;20031;-83
2022/01/24 08:52:29;;;;;;;1.95;1.58;;;5.00;99.90;;;;;;5115599;27;20047;-83
2022/01/24 08:54:54;;;;;;;0.70;0.68;;;5.00;99.90;;;;;;5098282;27;20511;-83
2022/01/24 08:57:25;;;;;;;1.30;1.20;;;5.00;99.90;;;;;;5097928;27;20165;-83
2022/01/24 08:59:52;;;;;;;3.38;2.08;;;5.00;99.90;;;;;;5098627;27;20071;-83
2022/01/24 09:02:18;;;;;;;1.95;1.42;;;5.00;99.90;;;;;;5098556;27;20499;-83
2022/01/24 09:04:44;;;;;;;5.43;3.42;;;5.00;99.90;;;;;;5095186;28;20027;-83
2022/01/24 09:07:10;;;;;;;1.25;1.15;;;5.00;99.90;;;;;;5110370;27;20046;-83
2022/01/24 09:09:36;;;;;;;2.67;1.73;;;5.00;99.90;;;;;;5113157;27;20046;-84
2022/01/24 09:12:11;;;;;;;0.40;0.40;;;5.00;99.90;;;;;;5098098;28;20038;-83
2022/01/24 09:14:36;;;;;;;0.30;0.30;;;5.00;99.90;;;;;;5098489;27;20120;-86
2022/01/24 09:17:02;;;;;;;4.90;3.40;;;5.00;99.90;;;;;;5097528;27;20120;-84
2022/01/24 09:19:28;;;;;;;0.57;0.57;;;5.00;99.90;;;;;;5097982;28;20047;-85
2022/01/24 09:21:53;;;;;;;9.52;4.72;;;5.00;99.90;;;;;;5097878;28;20042;-84
2022/01/24 09:24:19;;;;;;;0.35;0.35;;;5.00;99.90;;;;;;5098028;28;20077;-83
2022/01/24 09:26:44;;;;;;;0.75;0.75;;;5.00;99.90;;;;;;5100578;27;21789;-84
2022/01/24 09:29:10;;;;;;;1.40;1.15;;;5.10;99.90;;;;;;5116235;27;20046;-85
2022/01/24 09:31:35;;;;;;;3.08;1.33;;;5.10;99.90;;;;;;5111991;27;20030;-84
2022/01/24 09:34:02;;;;;;;2.17;1.13;;;5.10;99.90;;;;;;5118456;27;20398;-84
2022/01/24 09:36:28;;;;;;;0.60;0.60;;;5.10;99.90;;;;;;5118027;27;20027;-84
2022/01/24 09:38:53;;;;;;;6.63;1.55;;;5.10;99.90;;;;;;5118291;27;20031;-84
2022/01/24 09:41:19;;;;;;;0.85;0.52;;;5.10;99.90;;;;;;5102171;28;20043;-85
2022/01/24 09:43:45;;;;;;;0.40;0.40;;;5.10;99.90;;;;;;5097967;28;20122;-85
2022/01/24 09:46:11;;;;;;;1.00;0.88;;;5.10;99.90;;;;;;5097176;28;20081;-85
2022/01/24 09:48:41;;;;;;;4.45;2.53;;;5.10;99.90;;;;;;5116621;27;20078;-83
2022/01/24 09:51:07;;;;;;;1.83;1.45;;;5.10;99.90;;;;;;5118349;27;20046;-85
2022/01/24 09:53:46;;;;;;;0.65;0.65;;;5.10;99.90;;;;;;5118084;27;20030;-84
2022/01/24 09:56:11;;;;;;;0.77;0.75;;;5.10;99.90;;;;;;5106435;28;20070;-82
2022/01/24 09:58:37;;;;;;;2.55;1.48;;;5.10;99.90;;;;;;5097814;27;20067;-83
2022/01/24 10:01:07;;;;;;;8.50;2.85;;;5.10;99.90;;;;;;5117755;27;20027;-85
2022/01/24 10:03:35;;;;;;;3.80;2.15;;;5.10;99.90;;;;;;5101620;27;20034;-82
2022/01/24 10:06:00;;;;;;;1.95;1.50;;;5.10;99.90;;;;;;5101677;27;20075;-82
2022/01/24 10:08:27;;;;;;;10.60;6.30;;;5.10;99.90;;;;;;5101079;27;20071;-84
2022/01/24 10:10:55;;;;;;;2.85;1.90;;;5.10;99.90;;;;;;5101414;27;20430;-82
2022/01/24 10:16:25;;;;;;;3.83;1.95;;;5.10;99.90;;;;;;5116713;27;20411;-83
2022/01/24 10:19:15;;;;;;;5.30;3.90;;;5.10;99.90;;;;;;5113828;27;20045;-83
2022/01/24 10:21:54;;;;;;;5.40;3.85;;;5.10;99.90;;;;;;5121809;27;20390;-83
2022/01/24 10:24:37;;;;;;;3.58;2.20;;;5.10;99.90;;;;;;5121660;27;20039;-82
2022/01/24 10:27:15;;;;;;;3.40;2.75;;;5.10;99.90;;;;;;5123911;27;20047;-83
2022/01/24 10:29:50;;;;;;;1.17;0.85;;;5.10;99.90;;;;;;5112215;27;20037;-83
2022/01/24 10:32:44;;;;;;;1.48;1.38;;;5.10;99.90;;;;;;5121498;27;20035;-83
2022/01/24 10:35:23;;;;;;;5.75;2.90;;;5.10;99.90;;;;;;5121260;27;20410;-83
2022/01/24 10:38:18;;;;;;;8.73;5.03;;;5.20;99.90;;;;;;5104257;27;20043;-83
2022/01/24 10:40:53;;;;;;;12.27;6.53;;;5.10;99.90;;;;;;5101085;27;20479;-83
2022/01/24 10:43:26;;;;;;;5.20;3.20;;;5.10;99.90;;;;;;5100628;27;20039;-84
2022/01/24 10:45:54;;;;;;;8.38;6.22;;;5.10;99.90;;;;;;5117745;27;20031;-83
2022/01/24 10:48:28;;;;;;;4.93;3.20;;;5.10;99.90;;;;;;5099728;27;20067;-82
2022/01/24 10:51:22;;;;;;;6.18;2.97;;;5.10;99.90;;;;;;5080652;28;20746;-83
2022/01/24 10:53:53;;;;;;;5.43;3.05;;;5.10;99.90;;;;;;5084050;27;20058;-83
2022/01/24 10:56:31;;;;;;;5.93;4.07;;;5.10;99.90;;;;;;5099697;27;20488;-83
2022/01/24 10:59:20;;;;;;;7.18;4.25;;;5.20;99.90;;;;;;5100087;27;20045;-83
2022/01/24 11:01:57;;;;;;;3.05;2.03;;;5.10;99.90;;;;;;5116309;27;20035;-83
2022/01/24 11:04:26;;;;;;;4.93;3.53;;;5.10;99.90;;;;;;5100808;27;20398;-83
2022/01/24 11:07:02;;;;;;;2.78;2.42;;;5.10;99.90;;;;;;5099461;27;20050;-83
2022/01/24 11:09:29;;;;;;;0.40;0.40;;;5.10;99.90;;;;;;5100201;27;20441;-82
2022/01/24 11:12:12;;;;;;;3.55;2.15;;;5.10;99.90;;;;;;5099602;27;20047;-83
2022/01/24 11:14:41;;;;;;;5.00;3.13;;;5.10;99.90;;;;;;5079812;28;20079;-83
2022/01/24 11:17:29;;;;;;;5.20;3.53;;;5.10;99.90;;;;;;5084164;27;20036;-83
2022/01/24 11:20:00;;;;;;;5.07;2.78;;;5.10;99.90;;;;;;5104449;27;20031;-82
2022/01/24 11:22:32;;;;;;;2.40;1.85;;;5.10;99.90;;;;;;5099965;27;20031;-82
2022/01/24 11:25:02;;;;;;;3.33;2.42;;;5.10;99.90;;;;;;5100035;27;20035;-82
2022/01/24 11:27:33;;;;;;;1.60;1.35;;;5.10;99.90;;;;;;5124426;27;20077;-82
2022/01/24 11:30:05;;;;;;;4.55;2.55;;;5.10;99.90;;;;;;5118359;27;20030;-83
2022/01/24 11:32:38;;;;;;;4.93;2.10;;;5.20;99.90;;;;;;5120155;27;20038;-82
2022/01/24 11:35:05;;;;;;;7.30;2.65;;;5.20;99.90;;;;;;5137675;27;20053;-82
2022/01/24 11:37:59;;;;;;;0.60;0.60;;;5.20;99.90;;;;;;5119795;27;20039;-82
2022/01/24 11:40:26;;;;;;;0.40;0.40;;;5.20;99.90;;;;;;5120433;27;20042;-82
2022/01/24 11:42:52;;;;;;;3.28;2.25;;;5.20;99.90;;;;;;5123966;27;20041;-82
2022/01/24 11:45:43;;;;;;;4.35;2.80;;;5.20;99.90;;;;;;5116618;27;20035;-81
2022/01/24 11:48:17;;;;;;;2.45;1.45;;;5.20;99.90;;;;;;5099173;27;20057;-81
2022/01/24 11:50:58;;;;;;;14.45;3.90;;;5.20;99.90;;;;;;5120742;27;20023;-82
2022/01/24 11:53:28;;;;;;;10.25;5.95;;;5.20;99.90;;;;;;5117254;27;20046;-82
2022/01/24 11:55:55;;;;;;;1.52;1.20;;;5.20;99.90;;;;;;5119796;27;20039;-82
2022/01/24 11:58:29;;;;;;;2.40;1.83;;;5.20;99.90;;;;;;5119794;27;20529;-82
2022/01/24 12:00:57;;;;;;;9.30;5.72;;;5.20;99.90;;;;;;5120066;27;20062;-81
2022/01/24 12:03:27;;;;;;;3.75;2.55;;;5.10;99.90;;;;;;5136797;27;20083;-82
2022/01/24 12:05:58;;;;;;;3.90;2.55;;;5.20;99.90;;;;;;5119747;27;20057;-81
2022/01/24 12:08:35;;;;;;;1.38;1.25;;;5.10;99.90;;;;;;5119281;27;20050;-82
2022/01/24 12:11:19;;;;;;;3.13;1.95;;;5.10;99.90;;;;;;5119820;27;20047;-82
2022/01/24 12:13:53;;;;;;;2.90;1.33;;;5.10;99.90;;;;;;5107085;27;20076;-82
2022/01/24 12:16:21;;;;;;;0.50;0.50;;;5.10;99.90;;;;;;5113023;27;20082;-81
2022/01/24 12:18:50;;;;;;;2.92;1.95;;;5.10;99.90;;;;;;5119625;27;20051;-82
2022/01/24 12:21:23;;;;;;;1.45;1.25;;;5.10;99.90;;;;;;5102166;27;20067;-81
2022/01/24 12:23:53;;;;;;;3.45;1.95;;;5.10;99.90;;;;;;5098295;27;20035;-82
2022/01/24 12:26:19;;;;;;;2.20;1.40;;;5.20;99.90;;;;;;5098199;27;20043;-82
2022/01/24 12:28:45;;;;;;;2.38;1.67;;;5.10;99.90;;;;;;5098825;27;20050;-81
2022/01/24 12:31:30;;;;;;;1.65;1.42;;;5.10;99.90;;;;;;5098669;27;20051;-81
2022/01/24 12:34:04;;;;;;;2.05;1.63;;;5.10;99.90;;;;;;5094848;27;20058;-83
2022/01/24 12:36:46;;;;;;;5.43;3.42;;;5.10;99.90;;;;;;5094189;27;20049;-82
2022/01/24 12:39:20;;;;;;;4.47;2.45;;;5.00;99.90;;;;;;5106691;27;20042;-81
2022/01/24 12:42:00;;;;;;;2.72;1.75;;;5.00;99.90;;;;;;5095137;28;20038;-82
2022/01/24 12:47:06;;;;;;;1.85;1.73;;;5.10;99.90;;;;;;5115008;27;20445;-81
2022/01/24 12:49:32;;;;;;;2.20;1.73;;;5.00;99.90;;;;;;5081548;28;20071;-81
2022/01/24 12:52:11;;;;;;;2.65;1.85;;;5.10;99.90;;;;;;5098311;27;20039;-82
2022/01/24 12:54:49;;;;;;;1.48;1.05;;;5.10;99.90;;;;;;5115444;27;20053;-81
2022/01/24 12:57:18;;;;;;;4.32;3.30;;;5.10;99.90;;;;;;5098762;28;20035;-81
2022/01/24 13:00:04;;;;;;;1.45;0.68;;;5.10;99.90;;;;;;5086681;27;20397;-81
2022/01/24 13:02:34;;;;;;;;;;;5.10;99.90;;;;;;5119810;27;20448;-82
2022/01/24 13:05:08;;;;;;;12.30;4.00;;;5.10;99.90;;;;;;5098182;27;19915;-81
2022/01/24 13:07:35;;;;;;;0.50;0.50;;;5.10;99.90;;;;;;5098020;27;20039;-81
2022/01/24 13:10:08;;;;;;;2.80;1.83;;;5.10;99.90;;;;;;5103753;27;20122;-82
2022/01/24 13:12:35;;;;;;;0.50;0.50;;;5.10;99.90;;;;;;5101341;28;20047;-81
2022/01/24 13:21:17;;;;;;;2.03;1.80;;;5.10;99.90;;;;;;5115040;28;20080;-81
2022/01/24 13:23:55;;;;;;;1.95;1.50;;;5.10;99.90;;;;;;5086857;27;20129;-81
2022/01/24 13:26:21;;;;;;;2.63;1.80;;;5.10;99.90;;;;;;5102021;28;20031;-81
2022/01/24 13:28:47;;;;;;;1.88;1.40;;;5.10;99.90;;;;;;5098148;28;20487;-81
2022/01/24 13:31:14;;;;;;;1.25;1.05;;;5.00;99.90;;;;;;5114803;28;20096;-81
2022/01/24 13:33:41;;;;;;;0.43;0.43;;;5.10;99.90;;;;;;5087909;28;20040;-82
2022/01/24 13:36:10;;;;;;;5.53;2.42;;;5.10;99.90;;;;;;5116971;27;20039;-82
2022/01/24 13:38:45;;;;;;;3.10;1.25;;;5.00;99.90;;;;;;5100327;27;20043;-82
2022/01/24 13:41:15;;;;;;;;;;;5.10;99.90;;;;;;5102170;27;20042;-82
2022/01/24 13:43:51;;;;;;;2.28;1.95;;;5.00;99.90;;;;;;5101879;27;20293;-81
2022/01/24 13:46:24;;;;;;;1.42;1.30;;;5.00;99.90;;;;;;5102555;27;20047;-82
2022/01/24 13:48:56;;;;;;;1.95;1.50;;;5.00;99.90;;;;;;5112400;27;20047;-81
2022/01/24 13:51:50;;;;;;;0.57;0.57;;;5.00;99.90;;;;;;5099724;27;20083;-81
2022/01/24 13:54:28;;;;;;;5.13;1.63;;;5.00;99.90;;;;;;5099787;27;20054;-83
2022/01/24 13:57:00;;;;;;;1.50;1.00;;;5.00;99.90;;;;;;5101076;27;20035;-84
2022/01/24 13:59:25;;;;;;;1.38;1.27;;;5.00;99.90;;;;;;5093092;28;20122;-83
2022/01/24 14:02:15;;;;;;;0.70;0.70;;;5.00;99.90;;;;;;5098056;27;20127;-83
2022/01/24 14:04:48;;;;;;;5.72;1.70;;;5.00;99.90;;;;;;5081154;28;20039;-83
2022/01/24 14:07:24;;;;;;;3.08;1.83;;;5.00;99.90;;;;;;5100403;27;20042;-83
2022/01/24 14:09:53;;;;;;;2.63;2.30;;;5.00;99.90;;;;;;5109884;27;20141;-81
2022/01/24 14:12:25;;;;;;;2.53;2.03;;;5.00;99.90;;;;;;5105270;27;20039;-81
2022/01/24 14:15:11;;;;;;;1.10;0.98;;;5.00;99.90;;;;;;5101221;27;20046;-84
2022/01/24 14:20:09;;;;;;;1.02;0.93;;;4.90;99.90;;;;;;5118423;27;20068;-81
2022/01/24 14:22:51;;;;;;;3.47;2.08;;;4.90;99.90;;;;;;5101559;27;20039;-81
2022/01/24 14:25:31;;;;;;;4.35;2.55;;;4.90;99.90;;;;;;5100999;27;20031;-82
2022/01/24 14:28:15;;;;;;;2.05;1.85;;;4.90;99.90;;;;;;5117852;27;20547;-81
2022/01/24 14:30:45;;;;;;;3.92;3.53;;;4.90;99.90;;;;;;5118389;27;20128;-81
2022/01/24 14:33:15;;;;;;;0.65;0.65;;;4.90;99.90;;;;;;5101410;27;20035;-81
2022/01/24 14:35:47;;;;;;;0.70;0.57;;;4.90;99.90;;;;;;5109279;27;20103;-81
2022/01/24 14:39:11;;;;;;;2.33;1.40;;;4.90;99.90;;;;;;5117477;27;20079;-82
2022/01/24 14:41:45;;;;;;;1.13;1.05;;;4.90;99.90;;;;;;5032885;28;20132;-81
2022/01/24 14:47:12;;;;;;;1.27;1.13;;;4.80;99.90;;;;;;5095793;28;20376;-81
2022/01/24 14:49:48;;;;;;;0.75;0.75;;;4.80;99.90;;;;;;5080653;28;20039;-81
2022/01/24 14:52:36;;;;;;;4.28;3.90;;;4.80;99.90;;;;;;5080554;28;20039;-82
2022/01/24 14:55:02;;;;;;;1.38;1.15;;;4.80;99.90;;;;;;5080447;28;20570;-82
2022/01/24 14:57:47;;;;;;;0.63;0.63;;;4.80;99.90;;;;;;5086750;27;20043;-81
2022/01/24 15:00:13;;;;;;;;;;;4.90;99.90;;;;;;5116295;27;20035;-82
2022/01/24 15:02:39;;;;;;;2.33;1.83;;;4.80;99.90;;;;;;5120906;27;19922;-82
2022/01/24 15:05:05;;;;;;;3.65;3.13;;;4.80;99.90;;;;;;5120849;27;20027;-81
2022/01/24 15:07:34;;;;;;;0.35;0.35;;;4.80;99.90;;;;;;5108946;27;20857;-82
2022/01/24 15:13:42;;;;;;;45.53;23.17;;;4.80;99.90;;;;;;5096964;28;20415;-83
2022/01/24 15:16:14;;;;;;;1.23;1.13;;;4.80;99.90;;;;;;5115237;27;20043;-81
2022/01/24 15:24:41;;;;;;;0.80;0.80;;;4.70;99.90;;;;;;5112874;27;20074;-81
2022/01/24 15:27:07;;;;;;;0.70;0.70;;;4.70;99.90;;;;;;5099701;27;20043;-81
2022/01/24 15:29:33;;;;;;;0.60;0.60;;;4.70;99.90;;;;;;5100264;27;20475;-81